Station info - map view · info · telemetry · weather · raw · status · beacons · messages · bulletins · browse · moving · my account
Callsign, ship name or locator: Clear       
It is possible to search using wildcards (*?) after a prefix. Example: OH*
APRS station ON8SGA-9 - show graphs
Map loading...
Comment: ON8SGA/M
Last status: {AT0B3}
Location: 41°06.06' N 14°15.76' E - locator JN71DC14MF - show map - static map
1.3 miles Northwest bearing 320° from San Prisco, Provincia di Caserta, Campania, Italy [?]
1.5 miles North bearing 13° from Santa Maria Capua Vetere, Provincia di Caserta, Campania, Italy
18.5 miles North bearing 2° from Napoli, Provincia di Napoli, Campania, Italy
71.2 miles West bearing 250° from Foggia, Provincia di Foggia, Apulia, Italy
Last position: 2017-02-21 17:10:43 EST (21h46m ago)
2017-02-21 23:10:43 CET local time at San Prisco, Italy [?]
Altitude: 168 ft
Course: 153°
Speed: 5 MPH
Device: PE1RXQ: PE1RXQ APRS Tracker (tracker)
Last path: ON8SGA-9>APERXQ via RELAY,qAR,IC8EPV (suboptimal)
It would be advisable to replace RELAY with WIDE1-1. WIDE1-1,WIDE2-1 is generally a good path.
Positions stored: 13549
Stations near current position of ON8SGA-9 - show more
callsign distance last heard - EST      callsign distance last heard - EST
IZ8TXC-M0.9 miles 167°2017-02-22 07:05:24 IZ8TXC C0.9 miles 166°2017-02-18 08:54:33
IZ8TXC-C0.9 miles 166°2017-02-18 08:54:43 IU8CHA-111.3 miles 138°2017-02-20 17:47:51
IU8CHA-91.7 miles 143°2017-02-19 23:36:48 IU8ACV-54.7 miles 337°2017-02-18 15:51:02
IW8EYB-17.6 miles 323°2017-01-28 10:36:16 IW8EYB-77.6 miles 323°2017-01-30 16:25:15
IW8EYB7.7 miles 324°2017-01-30 10:45:37 FW05598.8 miles 206°2017-02-22 13:50:05
IZ8EEO-99.8 miles 320°2017-02-19 10:57:09 IZ8TAM10.2 miles 166°2017-01-26 05:41:14
IQ8UN-110.2 miles 319°2017-02-22 14:54:41 I8IUD-910.3 miles 320°2017-02-22 14:50:54
I8IUD10.4 miles 320°2017-02-21 19:03:26 IZ8FPF10.5 miles 306°2017-02-10 16:40:59
IK8TLZ11.0 miles 176°2017-02-20 01:50:37 I001NA-612.3 miles 195°2017-02-01 06:34:15
I001NA12.4 miles 196°2017-02-01 06:38:42 I001NA-512.4 miles 196°2017-02-01 06:41:19
Stations which heard ON8SGA-9 directly on radio –
callsign pkts first heard - EST last heard longest (tx => rx) longest at - EST
IR5P 3 2017-02-21 12:22:39 2017-02-21 12:31:57 JN53OV > JN53LT 11.9 miles 240° 2017-02-21 12:22:39
IR0VT-11 4 2017-02-21 14:20:24 2017-02-21 14:37:44 JN62CN > JN62CI 15.8 miles 194° 2017-02-21 14:20:24
IR5X 1 2017-02-21 12:43:42 2017-02-21 12:43:42 JN53QR > JN53GS 41.3 miles 273° 2017-02-21 12:43:42
IR3BT 1 2017-02-21 10:54:13 2017-02-21 10:54:13 JN54DU > JN56MD 96.1 miles 22° 2017-02-21 10:54:13
IK2XDE-6 2 2017-02-21 09:14:12 2017-02-21 09:18:42 JN45MU > JN45MQ 9.9 miles 169° 2017-02-21 09:14:12
DB0MYK 8 2017-02-21 02:12:27 2017-02-21 02:45:46 JO30TC > JO30OJ 26.7 miles 319° 2017-02-21 02:45:46
IR2AO 11 2017-02-21 09:25:53 2017-02-21 10:01:41 JN45MQ > JN45PM 19.3 miles 129° 2017-02-21 09:25:53
IR2UBX-11 12 2017-02-21 09:05:44 2017-02-21 09:42:06 JN45ML > JN45MQ 15.6 miles 353° 2017-02-21 09:42:06
DB0KT 1 2017-02-21 03:16:08 2017-02-21 03:16:08 JN49BS > JO40PL 71.7 miles 45° 2017-02-21 03:16:08
HB9BA-2 1 2017-02-21 06:37:19 2017-02-21 06:37:19 JN37VI > JN37SB 22.9 miles 217° 2017-02-21 06:37:19
HB9FM-4 10 2017-02-21 06:06:33 2017-02-21 06:23:38 JN37SP > JN37SM 8.0 miles 171° 2017-02-21 06:07:35
DB0SAE 1 2017-02-21 07:19:48 2017-02-21 07:19:48 JN46EX > JN47AQ 52.1 miles 343° 2017-02-21 07:19:48
DB0TFM-1 5 2017-02-21 03:46:33 2017-02-21 04:33:51 JN49FI > JN48ES 41.0 miles 183° 2017-02-21 03:46:33
DB0SDA 7 2017-02-21 01:12:28 2017-02-21 01:30:48 JO30FU > JO30AS 19.5 miles 255° 2017-02-21 01:30:48
DB0RHB 9 2017-02-21 01:22:52 2017-02-21 02:06:08 JO30DT > JO30LN 33.6 miles 121° 2017-02-21 01:22:52
DB0NY 3 2017-02-21 01:46:28 2017-02-21 01:59:20 JO30LP > JO31TB 41.0 miles 44° 2017-02-21 01:59:20
HB9LU-10 20 2017-02-21 06:55:09 2017-02-21 07:38:25 JN46HU > JN47DB 20.9 miles 306° 2017-02-21 07:38:25
HB9RL-11 8 2017-02-21 08:40:59 2017-02-21 09:32:51 JN45MN > JN46JE 44.6 miles 346° 2017-02-21 09:32:51
PA3GKF-10 4 2017-02-21 00:58:25 2017-02-21 01:06:26 JO20XU > JO20VW 7.9 miles 303° 2017-02-21 01:06:26
HB9RF-10 13 2017-02-21 06:38:23 2017-02-21 07:46:32 JN37VH > JN47GA 39.4 miles 121° 2017-02-21 06:38:23
ON0LB-10 4 2017-02-21 00:52:56 2017-02-21 01:15:15 JO30BT > JO20SR 27.8 miles 261° 2017-02-21 01:15:15
DK0HQ 1 2017-02-21 01:54:25 2017-02-21 01:54:25 JO30KQ > JO30NR 10.7 miles 82° 2017-02-21 01:54:25
IK5ZUN 3 2017-02-21 12:32:05 2017-02-21 12:37:41 JN53OR > JN53OR 2.5 miles 103° 2017-02-21 12:32:05
IR0UEI 4 2017-02-21 14:33:04 2017-02-21 14:42:15 JN62GG > JN62HK 11.2 miles 25° 2017-02-21 14:42:15
IR5UAX 11 2017-02-21 13:04:02 2017-02-21 13:43:17 JN53WC > JN53XO 35.4 miles 5° 2017-02-21 13:43:17
DL8KZ 7 2017-02-21 01:57:21 2017-02-21 02:17:22 JO30OK > JO30PQ 18.3 miles 6° 2017-02-21 02:17:22
DB0LJ-1 1 2017-02-21 02:19:44 2017-02-21 02:19:44 JO30PJ > JO30QJ 3.2 miles 87° 2017-02-21 02:19:44
F5ZEE 2 2017-02-21 04:33:49 2017-02-21 04:57:38 JN38WJ > JN38TX 41.5 miles 345° 2017-02-21 04:57:38
DB0TN-10 5 2017-02-21 04:48:32 2017-02-21 05:12:21 JN38VD > JN48BI 22.2 miles 53° 2017-02-21 05:12:21
DB0DB-10 8 2017-02-21 05:28:23 2017-02-21 06:25:17 JN37VL > JN37US 19.4 miles 351° 2017-02-21 06:25:17
DB0UHC 8 2017-02-21 01:16:33 2017-02-21 01:39:44 JO30BT > JO31HB 26.4 miles 48° 2017-02-21 01:16:33
IW0EXY 1 2017-02-21 14:43:39 2017-02-21 14:43:39 JN62GG > JN62ED 11.6 miles 215° 2017-02-21 14:43:39
HB9FM-10 2 2017-02-21 06:14:58 2017-02-21 06:17:29 JN37TN > JN37TK 7.5 miles 186° 2017-02-21 06:14:58
DJ8HS-1 2 2017-02-21 02:59:46 2017-02-21 03:01:34 JN39VW > JO40CB 18.4 miles 64° 2017-02-21 02:59:46
IK2EXH 6 2017-02-21 09:47:04 2017-02-21 10:02:23 JN45RG > JN45OH 12.4 miles 272° 2017-02-21 10:02:23
IW2HUZ-11 3 2017-02-21 09:13:58 2017-02-21 09:40:19 JN45ML > JN45MU 26.0 miles 0° 2017-02-21 09:40:19
DB0FDA 1 2017-02-21 03:26:43 2017-02-21 03:26:43 JN49DP > JN49HU 22.4 miles 43° 2017-02-21 03:26:43
IR4BA 9 2017-02-21 11:50:22 2017-02-21 12:04:02 JN54OC > JN54NF 9.7 miles 315° 2017-02-21 12:04:02
IW2GOB-2 7 2017-02-21 09:59:36 2017-02-21 10:12:10 JN45TD > JN45SH 10.3 miles 336° 2017-02-21 10:12:10
IQ2ER 1 2017-02-21 09:19:04 2017-02-21 09:19:04 JN45MS > JN45OT 9.5 miles 81° 2017-02-21 09:19:04
DH1GHL 6 2017-02-21 04:31:41 2017-02-21 04:45:01 JN48CU > JN48CQ 11.3 miles 188° 2017-02-21 04:31:41
IR2S 10 2017-02-21 09:35:59 2017-02-21 11:00:30 JN54FT > JN55DQ 60.1 miles 352° 2017-02-21 11:00:30
DB0WIM 1 2017-02-21 03:59:55 2017-02-21 03:59:55 JN49HG > JN49CD 19.5 miles 239° 2017-02-21 03:59:55
HB9TUO-11 1 2017-02-21 08:40:58 2017-02-21 08:40:58 JN46LD > JN46JF 12.5 miles 297° 2017-02-21 08:40:58
HB9FLD-11 3 2017-02-21 07:01:33 2017-02-21 07:04:29 JN47CD > JN47CA 8.1 miles 186° 2017-02-21 07:01:33
IQ2LB-7 1 2017-02-21 09:38:22 2017-02-21 09:38:22 JN45MM > JN45NO 5.0 miles 33° 2017-02-21 09:38:22
IR0UCA 4 2017-02-21 15:02:20 2017-02-21 15:09:49 JN61JV > JN61GW 11.9 miles 293° 2017-02-21 15:09:49
IQ2CY 1 2017-02-21 10:18:25 2017-02-21 10:18:25 JN45UB > JN55AD 15.1 miles 66° 2017-02-21 10:18:25
DB0ESG-10 7 2017-02-21 03:01:48 2017-02-21 03:08:33 JN39XU > JN39XX 9.4 miles 354° 2017-02-21 03:08:33
IC8EPV 2 2017-02-21 15:58:16 2017-02-21 17:10:43 JN61UL > JN60XR 52.0 miles 167° 2017-02-21 15:58:16
IZ0RMH-5 7 2017-02-21 13:42:06 2017-02-21 14:00:04 JN53WD > JN62BW 17.7 miles 135° 2017-02-21 13:42:06
DB0UT-10 2 2017-02-21 02:48:05 2017-02-21 02:56:35 JN39VX > JN39NR 32.3 miles 243° 2017-02-21 02:56:35
IR2UFW 5 2017-02-21 09:39:06 2017-02-21 09:46:22 JN45MM > JN45LI 10.2 miles 197° 2017-02-21 09:39:06
IK5WJG-11 10 2017-02-21 12:07:15 2017-02-21 12:53:14 JN54OB > JN53SR 27.3 miles 147° 2017-02-21 12:07:15
DB0ODE-10 3 2017-02-21 03:51:28 2017-02-21 03:59:50 JN49GH > JN49MH 23.5 miles 90° 2017-02-21 03:51:28
HB9CF-1 12 2017-02-21 07:41:34 2017-02-21 07:53:22 JN46HT > JN46GP 12.4 miles 194° 2017-02-21 07:41:34
IQ4SC 10 2017-02-21 11:08:11 2017-02-21 11:20:43 JN54HR > JN54IO 10.3 miles 156° 2017-02-21 11:08:11
DG1UAZ-10 1 2017-02-21 04:13:17 2017-02-21 04:13:17 JN49GC > JN49GC 1.3 miles 141° 2017-02-21 04:13:17
DB1CD-10 6 2017-02-21 01:07:50 2017-02-21 01:17:33 JO20XU > JO30BT 5.1 miles 112° 2017-02-21 01:07:50
IR4UCI-11 11 2017-02-21 11:21:14 2017-02-21 11:35:51 JN54OM > JN54MM 9.8 miles 278° 2017-02-21 11:35:51
IR0AAA-10 29 2017-02-21 14:40:07 2017-02-21 15:37:09 JN62FH > JN61LV 35.9 miles 141° 2017-02-21 14:40:07
IR0AAD-10 3 2017-02-21 13:40:31 2017-02-21 13:45:20 JN53WD > JN62JU 51.6 miles 112° 2017-02-21 13:40:31
IQ3VO 2 2017-02-21 10:57:43 2017-02-21 10:59:48 JN54ET > JN55MQ 68.3 miles 27° 2017-02-21 10:59:48
IZ5RZS 8 2017-02-21 13:17:36 2017-02-21 13:33:31 JN53VF > JN53VH 6.1 miles 349° 2017-02-21 13:33:31

Only position packets which were originated by the station are shown here. The range statistics show some extra long hops, because some digipeaters do not correctly add themselves to the digipeater path. Please check the raw packets.
About this site
This page shows real-time information collected from the Automatic Position Reporting System Internet network (APRS-IS). APRS is used by amateur (ham) radio operators to transmit real-time position information, weather data, telemetry and messages over the radio. A vehicle equipped with a GPS receiver, a VHF transmitter or HF transceiver and a small computer device called a tracker transmits it's location, speed and course in a small data packet, which is then received by a nearby iGate receiving site which forwards the packet on the Internet. Systems connected to the Internet can send information on the APRS-IS without a radio transmitter, or collect and display information transmitted anywhere in the world.
FAQ · Blog · Discussion group · Linking to aprs.fi · AIS sites · Service status · Database statistics · Advertising on aprs.fi · Technical details · API · Change log · Planned changes · Credits and thanks · Terms Of Service · iPhone/iPad APRS